createdAt,value
2024-02-22T00:00:25.255Z,50.877228
2024-02-22T00:01:25.228Z,50.877144
2024-02-22T00:02:25.224Z,50.877197
2024-02-22T00:03:25.200Z,50.877228
2024-02-22T00:04:25.255Z,50.877148
2024-02-22T00:05:25.372Z,50.877190
2024-02-22T00:06:25.199Z,50.877197
2024-02-22T00:07:25.167Z,50.877178
2024-02-22T00:08:25.148Z,50.877193
2024-02-22T00:09:25.130Z,50.877232
2024-02-22T00:10:25.120Z,50.877167
2024-02-22T00:11:25.210Z,50.877220
2024-02-22T00:12:25.104Z,50.877159
2024-02-22T00:13:25.116Z,50.877121
2024-02-22T00:14:25.101Z,50.877136
2024-02-22T00:15:25.083Z,50.877106
2024-02-22T00:16:25.139Z,50.877205
2024-02-22T00:17:25.127Z,50.877239
2024-02-22T00:18:25.171Z,50.877232
2024-02-22T00:19:25.200Z,50.877182
2024-02-22T00:20:25.077Z,50.877186
2024-02-22T00:21:25.025Z,50.877209
2024-02-22T00:22:25.051Z,50.877174
2024-02-22T00:23:25.027Z,50.877197
2024-02-22T00:24:24.988Z,50.877205
2024-02-22T00:25:24.971Z,50.877205
2024-02-22T00:26:24.962Z,50.877205
2024-02-22T00:27:24.972Z,50.877205
2024-02-22T00:28:24.987Z,50.877205
2024-02-22T00:29:24.946Z,50.877205
2024-02-22T00:30:24.945Z,50.877205
2024-02-22T00:31:24.955Z,50.877277
2024-02-22T00:32:24.986Z,50.877285
2024-02-22T00:33:24.919Z,50.877285
2024-02-22T00:34:24.967Z,50.877316
2024-02-22T00:35:24.962Z,50.877316
2024-02-22T00:36:24.890Z,50.877316
2024-02-22T00:37:24.864Z,50.877316
2024-02-22T00:38:24.858Z,50.877316
2024-02-22T00:39:24.892Z,50.877316
2024-02-22T00:40:24.846Z,50.877316
2024-02-22T00:41:24.869Z,50.877316
2024-02-22T00:42:24.842Z,50.877316
2024-02-22T00:43:24.832Z,50.877316
2024-02-22T00:44:24.822Z,50.877316
2024-02-22T00:45:24.803Z,50.876888
2024-02-22T00:46:24.777Z,50.876915
2024-02-22T00:47:24.860Z,50.876930
2024-02-22T00:48:24.893Z,50.876942
2024-02-22T00:49:24.844Z,50.876953
2024-02-22T00:50:24.860Z,50.876987
2024-02-22T00:51:24.774Z,50.877174
2024-02-22T00:52:24.739Z,50.877182
2024-02-22T00:53:24.735Z,50.877171
2024-02-22T00:54:24.734Z,50.877174
2024-02-22T00:55:24.718Z,50.877186
2024-02-22T00:56:24.689Z,50.877186
2024-02-22T00:57:24.659Z,50.877190
2024-02-22T00:58:24.688Z,50.877190
2024-02-22T00:59:24.682Z,50.877201
2024-02-22T01:00:24.651Z,50.877178
2024-02-22T01:01:24.700Z,50.877182
2024-02-22T01:02:24.614Z,50.877186
2024-02-22T01:03:24.652Z,50.877171
2024-02-22T01:04:24.687Z,50.877155
2024-02-22T01:05:24.763Z,50.877167
2024-02-22T01:06:24.724Z,50.877159
2024-02-22T01:07:24.586Z,50.877178
2024-02-22T01:08:24.580Z,50.877178
2024-02-22T01:09:24.556Z,50.877171
2024-02-22T01:10:24.574Z,50.877159
2024-02-22T01:11:24.603Z,50.877163
2024-02-22T01:12:24.514Z,50.877148
2024-02-22T01:13:24.520Z,50.877159
2024-02-22T01:14:24.520Z,50.877151
2024-02-22T01:15:24.511Z,50.877159
2024-02-22T01:16:24.499Z,50.877144
2024-02-22T01:17:24.498Z,50.877182
2024-02-22T01:18:24.530Z,50.877163
2024-02-22T01:19:24.516Z,50.877163
2024-02-22T01:20:24.474Z,50.877174
2024-02-22T01:21:24.436Z,50.877159
2024-02-22T01:22:24.434Z,50.877182
2024-02-22T01:23:24.424Z,50.877171
2024-02-22T01:24:24.410Z,50.877171
2024-02-22T01:25:24.418Z,50.877163
2024-02-22T01:26:24.437Z,50.877148
2024-02-22T01:27:24.395Z,50.877159
2024-02-22T01:28:24.396Z,50.877167
2024-02-22T01:29:24.355Z,50.877159
2024-02-22T01:30:24.363Z,50.877140
2024-02-22T01:31:24.399Z,50.877144
2024-02-22T01:32:24.369Z,50.877151
2024-02-22T01:33:24.459Z,50.877159
2024-02-22T01:34:24.360Z,50.877159
2024-02-22T01:35:24.414Z,50.877159
2024-02-22T01:36:24.311Z,50.877148
2024-02-22T01:37:24.300Z,50.877159
2024-02-22T01:38:24.361Z,50.877155
2024-02-22T01:39:24.305Z,50.877140
2024-02-22T01:40:24.253Z,50.877174
2024-02-22T01:41:26.028Z,50.877167
2024-02-22T01:42:24.231Z,50.877155
2024-02-22T01:43:24.261Z,50.877144
2024-02-22T01:44:24.209Z,50.877163
2024-02-22T01:45:24.202Z,50.877155
2024-02-22T01:46:24.198Z,50.877155
2024-02-22T01:47:24.203Z,50.877163
2024-02-22T01:48:24.237Z,50.877163
2024-02-22T01:49:24.156Z,50.877167
2024-02-22T01:50:24.151Z,50.877190
2024-02-22T01:51:24.148Z,50.877159
2024-02-22T01:52:24.144Z,50.877159
2024-02-22T01:53:24.118Z,50.877144
2024-02-22T01:54:24.151Z,50.877159
2024-02-22T01:55:24.109Z,50.877132
2024-02-22T01:56:24.117Z,50.877159
2024-02-22T01:57:24.078Z,50.877182
2024-02-22T01:58:24.076Z,50.877182
2024-02-22T01:59:24.098Z,50.877174
2024-02-22T02:00:24.060Z,50.877167
2024-02-22T02:01:24.063Z,50.877155
2024-02-22T02:02:24.048Z,50.877171
2024-02-22T02:03:24.033Z,50.877163
2024-02-22T02:04:24.004Z,50.877163
2024-02-22T02:05:24.103Z,50.877151
2024-02-22T02:06:24.024Z,50.877132
2024-02-22T02:07:24.018Z,50.877098
2024-02-22T02:08:24.004Z,50.877117
2024-02-22T02:09:23.954Z,50.877129
2024-02-22T02:10:23.957Z,50.877178
2024-02-22T02:11:24.046Z,50.877201
2024-02-22T02:12:23.947Z,50.877163
2024-02-22T02:13:23.930Z,50.877163
2024-02-22T02:14:23.963Z,50.877037
2024-02-22T02:15:23.891Z,50.877129
2024-02-22T02:16:23.883Z,50.877117
2024-02-22T02:17:23.904Z,50.877098
2024-02-22T02:18:23.921Z,50.877098
2024-02-22T02:19:23.955Z,50.877140
2024-02-22T02:20:23.962Z,50.877102
2024-02-22T02:21:23.845Z,50.877182
2024-02-22T02:22:23.837Z,50.877151
2024-02-22T02:23:23.823Z,50.877144
2024-02-22T02:24:23.839Z,50.877071
2024-02-22T02:25:23.859Z,50.877048
2024-02-22T02:26:23.832Z,50.877079
2024-02-22T02:27:23.783Z,50.877083
2024-02-22T02:28:23.786Z,50.877110
2024-02-22T02:29:23.816Z,50.877113
2024-02-22T02:30:23.745Z,50.877136
2024-02-22T02:31:23.801Z,50.877140
2024-02-22T02:32:23.782Z,50.877125
2024-02-22T02:33:23.809Z,50.877182
2024-02-22T02:34:23.749Z,50.877235
2024-02-22T02:35:23.780Z,50.877232
2024-02-22T02:36:23.686Z,50.877213
2024-02-22T02:37:23.671Z,50.877239
2024-02-22T02:38:23.693Z,50.877293
2024-02-22T02:39:23.672Z,50.877277
2024-02-22T02:40:23.670Z,50.877209
2024-02-22T02:41:23.691Z,50.877235
2024-02-22T02:42:23.642Z,50.877289
2024-02-22T02:43:23.621Z,50.877285
2024-02-22T02:44:23.701Z,50.877274
2024-02-22T02:45:23.612Z,50.877274
2024-02-22T02:46:23.658Z,50.877274
2024-02-22T02:47:23.599Z,50.877274
2024-02-22T02:48:23.618Z,50.877274
2024-02-22T02:49:23.557Z,50.877274
2024-02-22T02:50:23.578Z,50.877274
2024-02-22T02:51:23.548Z,50.877274
2024-02-22T02:52:23.527Z,50.877274
2024-02-22T02:53:23.671Z,50.877274
2024-02-22T02:54:23.521Z,50.877274
2024-02-22T02:55:23.528Z,50.877239
2024-02-22T02:56:23.550Z,50.877216
2024-02-22T02:57:23.528Z,50.877220
2024-02-22T02:58:23.488Z,50.877159
2024-02-22T02:59:23.554Z,50.877216
2024-02-22T03:00:23.472Z,50.877216
2024-02-22T03:01:23.525Z,50.877209
2024-02-22T03:02:23.651Z,50.877209
2024-02-22T03:03:23.426Z,50.877201
2024-02-22T03:04:23.474Z,50.877209
2024-02-22T03:05:23.516Z,50.877193
2024-02-22T03:06:23.422Z,50.877254
2024-02-22T03:07:23.368Z,50.877174
2024-02-22T03:08:23.421Z,50.877163
2024-02-22T03:09:23.344Z,50.877186
2024-02-22T03:10:23.344Z,50.877209
2024-02-22T03:11:23.411Z,50.877266
2024-02-22T03:12:23.329Z,50.877247
2024-02-22T03:13:23.340Z,50.877220
2024-02-22T03:14:23.380Z,50.877243
2024-02-22T03:15:23.306Z,50.877132
2024-02-22T03:16:23.292Z,50.877102
2024-02-22T03:17:23.327Z,50.877251
2024-02-22T03:18:23.307Z,50.877258
2024-02-22T03:19:23.261Z,50.877277
2024-02-22T03:20:23.276Z,50.877270
2024-02-22T03:21:23.262Z,50.877235
2024-02-22T03:22:23.260Z,50.877247
2024-02-22T03:23:23.240Z,50.877220
2024-02-22T03:24:23.232Z,50.877239
2024-02-22T03:25:23.242Z,50.877216
2024-02-22T03:26:23.205Z,50.877319
2024-02-22T03:27:23.190Z,50.877327
2024-02-22T03:28:23.160Z,50.877258
2024-02-22T03:29:23.318Z,50.877327
2024-02-22T03:30:23.169Z,50.877373
2024-02-22T03:31:23.140Z,50.877319
2024-02-22T03:32:23.164Z,50.877285
2024-02-22T03:33:23.128Z,50.877232
2024-02-22T03:34:23.175Z,50.877079
2024-02-22T03:35:23.138Z,50.877155
2024-02-22T03:36:23.081Z,50.877197
2024-02-22T03:37:23.069Z,50.877167
2024-02-22T03:38:23.212Z,50.877228
2024-02-22T03:39:23.055Z,50.877220
2024-02-22T03:40:23.046Z,50.877224
2024-02-22T03:41:23.022Z,50.877209
2024-02-22T03:42:23.021Z,50.877125
2024-02-22T03:43:23.032Z,50.877167
2024-02-22T03:44:23.003Z,50.877193
2024-02-22T03:45:23.066Z,50.877201
2024-02-22T03:46:23.049Z,50.877247
2024-02-22T03:47:23.020Z,50.877251
2024-02-22T03:48:23.005Z,50.877254
2024-02-22T03:49:22.998Z,50.877285
2024-02-22T03:50:22.989Z,50.877224
2024-02-22T03:51:22.926Z,50.877274
2024-02-22T03:52:22.933Z,50.877239
2024-02-22T03:53:22.995Z,50.877182
2024-02-22T03:54:22.916Z,50.877159
2024-02-22T03:55:22.877Z,50.877201
2024-02-22T03:56:22.998Z,50.877228
2024-02-22T03:57:22.876Z,50.877232
2024-02-22T03:58:22.876Z,50.877193
2024-02-22T03:59:22.885Z,50.877232
2024-02-22T04:00:22.852Z,50.877232
2024-02-22T04:01:22.881Z,50.877243
2024-02-22T04:02:22.885Z,50.877224
2024-02-22T04:03:22.825Z,50.877293
2024-02-22T04:04:22.855Z,50.877285
2024-02-22T04:05:22.843Z,50.877289
2024-02-22T04:06:22.795Z,50.877251
2024-02-22T04:07:22.781Z,50.877296
2024-02-22T04:08:22.770Z,50.877285
2024-02-22T04:09:22.764Z,50.877262
2024-02-22T04:10:22.732Z,50.877277
2024-02-22T04:11:22.826Z,50.877293
2024-02-22T04:12:22.753Z,50.877289
2024-02-22T04:13:22.702Z,50.877293
2024-02-22T04:14:22.694Z,50.877281
2024-02-22T04:15:22.691Z,50.877296
2024-02-22T04:16:22.672Z,50.877239
2024-02-22T04:17:22.700Z,50.877247
2024-02-22T04:18:22.816Z,50.877232
2024-02-22T04:19:22.733Z,50.877251
2024-02-22T04:20:22.727Z,50.877277
2024-02-22T04:21:22.631Z,50.877251
2024-02-22T04:22:22.650Z,50.877224
2024-02-22T04:23:22.667Z,50.877247
2024-02-22T04:24:22.631Z,50.877270
2024-02-22T04:25:22.625Z,50.877254
2024-02-22T04:26:22.656Z,50.877228
2024-02-22T04:27:22.576Z,50.877228
2024-02-22T04:28:22.582Z,50.877228
2024-02-22T04:29:22.697Z,50.877224
2024-02-22T04:30:22.575Z,50.877247
2024-02-22T04:31:22.542Z,50.877258
2024-02-22T04:32:22.589Z,50.877251
2024-02-22T04:33:22.553Z,50.877247
2024-02-22T04:34:22.530Z,50.877251
2024-02-22T04:35:22.580Z,50.877270
2024-02-22T04:36:22.507Z,50.877289
2024-02-22T04:37:22.470Z,50.877304
2024-02-22T04:38:22.532Z,50.877285
2024-02-22T04:39:22.470Z,50.877277
2024-02-22T04:40:22.485Z,50.877182
2024-02-22T04:41:22.544Z,50.877266
2024-02-22T04:42:22.447Z,50.877346
2024-02-22T04:43:22.409Z,50.877323
2024-02-22T04:44:22.508Z,50.877357
2024-02-22T04:45:22.415Z,50.877289
2024-02-22T04:46:22.399Z,50.877258
2024-02-22T04:47:22.422Z,50.877277
2024-02-22T04:48:22.422Z,50.877270
2024-02-22T04:49:22.477Z,50.877262
2024-02-22T04:50:22.459Z,50.877220
2024-02-22T04:51:22.380Z,50.877228
2024-02-22T04:52:22.361Z,50.877209
2024-02-22T04:53:22.386Z,50.877213
2024-02-22T04:54:22.341Z,50.877220
2024-02-22T04:55:22.331Z,50.877243
2024-02-22T04:56:22.357Z,50.877228
2024-02-22T04:57:22.322Z,50.877193
2024-02-22T04:58:22.299Z,50.877209
2024-02-22T04:59:22.374Z,50.877201
2024-02-22T05:00:22.264Z,50.877171
2024-02-22T05:01:22.313Z,50.877197
2024-02-22T05:02:22.326Z,50.877159
2024-02-22T05:03:22.264Z,50.877197
2024-02-22T05:04:22.249Z,50.877197
2024-02-22T05:05:22.476Z,50.877213
2024-02-22T05:06:22.310Z,50.877213
2024-02-22T05:07:22.208Z,50.877213
2024-02-22T05:08:22.211Z,50.877224
2024-02-22T05:09:22.205Z,50.877224
2024-02-22T05:10:22.184Z,50.877224
2024-02-22T05:11:22.280Z,50.877224
2024-02-22T05:12:22.154Z,50.877224
2024-02-22T05:13:22.136Z,50.877224
2024-02-22T05:14:22.190Z,50.877186
2024-02-22T05:15:22.108Z,50.877178
2024-02-22T05:16:22.114Z,50.877186
2024-02-22T05:17:22.150Z,50.877171
2024-02-22T05:18:22.160Z,50.877174
2024-02-22T05:19:22.130Z,50.877167
2024-02-22T05:20:22.242Z,50.877144
2024-02-22T05:21:22.126Z,50.877094
2024-02-22T05:22:22.032Z,50.877140
2024-02-22T05:23:22.108Z,50.877178
2024-02-22T05:24:22.053Z,50.877171
2024-02-22T05:25:22.044Z,50.877148
2024-02-22T05:26:22.059Z,50.877148
2024-02-22T05:27:22.021Z,50.877159
2024-02-22T05:28:21.986Z,50.877193
2024-02-22T05:29:22.036Z,50.877174
2024-02-22T05:30:21.962Z,50.877144
2024-02-22T05:31:21.965Z,50.877178
2024-02-22T05:32:22.021Z,50.877159
2024-02-22T05:33:22.014Z,50.877193
2024-02-22T05:34:21.976Z,50.877155
2024-02-22T05:35:21.978Z,50.877167
2024-02-22T05:36:21.922Z,50.877193
2024-02-22T05:37:21.922Z,50.877209
2024-02-22T05:38:21.929Z,50.877193
2024-02-22T05:39:21.941Z,50.877224
2024-02-22T05:40:21.867Z,50.877213
2024-02-22T05:41:21.888Z,50.877178
2024-02-22T05:42:21.854Z,50.877209
2024-02-22T05:43:21.973Z,50.877167
2024-02-22T05:44:21.843Z,50.877174
2024-02-22T05:45:22.820Z,50.877163
2024-02-22T05:46:21.813Z,50.877178
2024-02-22T05:47:21.872Z,50.877201
2024-02-22T05:48:21.903Z,50.877190
2024-02-22T05:49:21.812Z,50.877174
2024-02-22T05:50:21.797Z,50.877213
2024-02-22T05:51:22.774Z,50.877197
2024-02-22T05:52:21.730Z,50.877197
2024-02-22T05:53:21.773Z,50.877213
2024-02-22T05:54:21.719Z,50.877205
2024-02-22T05:55:21.736Z,50.877171
2024-02-22T05:56:21.777Z,50.877190
2024-02-22T05:57:21.690Z,50.877140
2024-02-22T05:58:21.697Z,50.877209
2024-02-22T05:59:21.733Z,50.877209
2024-02-22T06:00:21.658Z,50.877178
2024-02-22T06:01:21.733Z,50.877182
2024-02-22T06:02:21.719Z,50.877186
2024-02-22T06:03:21.685Z,50.877174
2024-02-22T06:04:21.682Z,50.877178
2024-02-22T06:05:21.695Z,50.877186
2024-02-22T06:06:21.602Z,50.877190
2024-02-22T06:07:21.642Z,50.877182
2024-02-22T06:08:21.649Z,50.877163
2024-02-22T06:09:21.548Z,50.877155
2024-02-22T06:10:21.550Z,50.877182
2024-02-22T06:11:21.653Z,50.877186
2024-02-22T06:12:21.573Z,50.877190
2024-02-22T06:13:21.595Z,50.877197
2024-02-22T06:14:21.592Z,50.877186
2024-02-22T06:15:21.490Z,50.877190
2024-02-22T06:16:21.473Z,50.877193
2024-02-22T06:17:21.507Z,50.877151
2024-02-22T06:18:21.470Z,50.877167
2024-02-22T06:19:21.483Z,50.877174
2024-02-22T06:20:21.509Z,50.877178
2024-02-22T06:21:21.437Z,50.877155
2024-02-22T06:22:21.435Z,50.877171
2024-02-22T06:23:21.502Z,50.877167
2024-02-22T06:24:21.398Z,50.877182
2024-02-22T06:25:21.389Z,50.877171
2024-02-22T06:26:21.474Z,50.877167
2024-02-22T06:27:21.389Z,50.877167
2024-02-22T06:28:21.349Z,50.877167
2024-02-22T06:29:21.368Z,50.877178
2024-02-22T06:30:21.349Z,50.877178
2024-02-22T06:31:21.331Z,50.877186
2024-02-22T06:32:21.343Z,50.877174
2024-02-22T06:33:21.381Z,50.877159
2024-02-22T06:34:21.350Z,50.877167
2024-02-22T06:35:21.323Z,50.877171
2024-02-22T06:36:21.278Z,50.877174
2024-02-22T06:37:21.855Z,50.877171
2024-02-22T06:38:21.269Z,50.877171
2024-02-22T06:39:21.292Z,50.877171
2024-02-22T06:40:21.262Z,50.877178
2024-02-22T06:41:21.274Z,50.877171
2024-02-22T06:42:21.226Z,50.877163
2024-02-22T06:43:21.208Z,50.877148
2024-02-22T06:44:21.217Z,50.877136
2024-02-22T06:45:21.187Z,50.877159
2024-02-22T06:46:21.167Z,50.877174
2024-02-22T06:47:21.217Z,50.877193
2024-02-22T06:48:21.465Z,50.877193
2024-02-22T06:49:21.207Z,50.877197
2024-02-22T06:50:21.248Z,50.877171
2024-02-22T06:51:21.218Z,50.877159
2024-02-22T06:52:21.133Z,50.877171
2024-02-22T06:53:21.183Z,50.877171
2024-02-22T06:54:21.117Z,50.877201
2024-02-22T06:55:21.116Z,50.877197
2024-02-22T06:56:21.146Z,50.877178
2024-02-22T06:57:21.150Z,50.877171
2024-02-22T06:58:21.086Z,50.877186
2024-02-22T06:59:21.095Z,50.877171
2024-02-22T07:00:21.041Z,50.877167
2024-02-22T07:01:21.060Z,50.877171
2024-02-22T07:02:21.095Z,50.877178
2024-02-22T07:03:21.044Z,50.877193
2024-02-22T07:04:21.085Z,50.877182
2024-02-22T07:05:20.997Z,50.877174
2024-02-22T07:06:21.034Z,50.877182
2024-02-22T07:07:21.006Z,50.877159
2024-02-22T07:08:21.034Z,50.877178
2024-02-22T07:09:20.972Z,50.877178
2024-02-22T07:10:20.945Z,50.877171
2024-02-22T07:11:20.980Z,50.877193
2024-02-22T07:12:20.993Z,50.877197
2024-02-22T07:13:20.911Z,50.877197
2024-02-22T07:14:20.978Z,50.877197
2024-02-22T07:15:20.933Z,50.877182
2024-02-22T07:16:20.883Z,50.877151
2024-02-22T07:17:22.961Z,50.877182
2024-02-22T07:18:21.922Z,50.877197
2024-02-22T07:19:20.960Z,50.877209
2024-02-22T07:20:20.917Z,50.877193
2024-02-22T07:21:20.832Z,50.877186
2024-02-22T07:22:20.879Z,50.877213
2024-02-22T07:23:20.857Z,50.877197
2024-02-22T07:24:20.818Z,50.877216
2024-02-22T07:25:20.787Z,50.877193
2024-02-22T07:26:20.829Z,50.877197
2024-02-22T07:27:20.780Z,50.877216
2024-02-22T07:28:20.777Z,50.877193
2024-02-22T07:29:20.774Z,50.877220
2024-02-22T07:30:20.781Z,50.877201
2024-02-22T07:31:20.725Z,50.877178
2024-02-22T07:32:20.873Z,50.877144
2024-02-22T07:33:20.762Z,50.877182
2024-02-22T07:34:20.815Z,50.877163
2024-02-22T07:35:20.721Z,50.877205
2024-02-22T07:36:20.683Z,50.877193
2024-02-22T07:37:20.691Z,50.877190
2024-02-22T07:38:20.750Z,50.877190
2024-02-22T07:39:20.653Z,50.877190
2024-02-22T07:40:20.670Z,50.877205
2024-02-22T07:41:20.750Z,50.877197
2024-02-22T07:42:20.617Z,50.877197
2024-02-22T07:43:20.602Z,50.877186
2024-02-22T07:44:20.657Z,50.877193
2024-02-22T07:45:20.598Z,50.877205
2024-02-22T07:46:20.607Z,50.877213
2024-02-22T07:47:20.601Z,50.877205
2024-02-22T07:48:20.614Z,50.877213
2024-02-22T07:49:21.544Z,50.877216
2024-02-22T07:50:21.601Z,50.877224
2024-02-22T07:51:20.560Z,50.877232
2024-02-22T07:52:20.532Z,50.877193
2024-02-22T07:53:20.549Z,50.877193
2024-02-22T07:54:20.501Z,50.877193
2024-02-22T07:55:20.517Z,50.877209
2024-02-22T07:56:20.721Z,50.877224
2024-02-22T07:57:20.478Z,50.877174
2024-02-22T07:58:20.477Z,50.877186
2024-02-22T07:59:20.558Z,50.877224
2024-02-22T08:00:20.452Z,50.877228
2024-02-22T08:01:20.472Z,50.877205
2024-02-22T08:02:20.476Z,50.877220
2024-02-22T08:03:20.402Z,50.877193
2024-02-22T08:04:20.412Z,50.877186
2024-02-22T08:05:20.466Z,50.877186
2024-02-22T08:06:20.420Z,50.877209
2024-02-22T08:07:20.418Z,50.877205
2024-02-22T08:08:20.410Z,50.877174
2024-02-22T08:09:20.341Z,50.877193
2024-02-22T08:10:20.353Z,50.877201
2024-02-22T08:11:20.444Z,50.877197
2024-02-22T08:12:20.333Z,50.877167
2024-02-22T08:13:20.320Z,50.877174
2024-02-22T08:14:20.411Z,50.877140
2024-02-22T08:15:20.290Z,50.877201
2024-02-22T08:16:20.282Z,50.877216
2024-02-22T08:17:20.356Z,50.877178
2024-02-22T08:18:20.359Z,50.877197
2024-02-22T08:19:20.340Z,50.877205
2024-02-22T08:20:20.365Z,50.877125
2024-02-22T08:21:20.234Z,50.877121
2024-02-22T08:22:20.242Z,50.877174
2024-02-22T08:23:20.283Z,50.877220
2024-02-22T08:24:20.187Z,50.877201
2024-02-22T08:25:20.189Z,50.877197
2024-02-22T08:26:20.261Z,50.877224
2024-02-22T08:27:20.187Z,50.877220
2024-02-22T08:28:20.177Z,50.877228
2024-02-22T08:29:20.251Z,50.877190
2024-02-22T08:30:20.145Z,50.877186
2024-02-22T08:31:20.118Z,50.877182
2024-02-22T08:32:20.258Z,50.877178
2024-02-22T08:33:20.164Z,50.877209
2024-02-22T08:34:20.188Z,50.877167
2024-02-22T08:35:20.172Z,50.877129
2024-02-22T08:36:20.080Z,50.877193
2024-02-22T08:37:20.065Z,50.877193
2024-02-22T08:38:20.106Z,50.877178
2024-02-22T08:39:20.066Z,50.877167
2024-02-22T08:40:30.593Z,50.877171
2024-02-22T08:41:20.037Z,50.877220
2024-02-22T08:42:20.012Z,50.877216
2024-02-22T08:43:20.010Z,50.877213
2024-02-22T08:44:20.075Z,50.877190
2024-02-22T08:45:19.975Z,50.877201
2024-02-22T08:46:21.611Z,50.877193
2024-02-22T08:47:20.047Z,50.877102
2024-02-22T08:48:19.983Z,50.877121
2024-02-22T08:49:19.986Z,50.877167
2024-02-22T08:50:20.039Z,50.877121
2024-02-22T08:51:19.912Z,50.877148
2024-02-22T08:52:21.068Z,50.877182
2024-02-22T08:53:20.913Z,50.877201
2024-02-22T08:54:19.896Z,50.877171
2024-02-22T08:55:19.938Z,50.877232
2024-02-22T08:56:19.924Z,50.877171
2024-02-22T08:57:19.883Z,50.877132
2024-02-22T08:58:19.870Z,50.877228
2024-02-22T08:59:19.920Z,50.877213
2024-02-22T09:00:19.840Z,50.877110
2024-02-22T09:01:19.882Z,50.877121
2024-02-22T09:02:19.976Z,50.877228
2024-02-22T09:03:19.846Z,50.877235
2024-02-22T09:04:19.840Z,50.877251
2024-02-22T09:05:19.788Z,50.877140
2024-02-22T09:06:19.823Z,50.877155
2024-02-22T09:07:19.822Z,50.877129
2024-02-22T09:08:19.867Z,50.877190
2024-02-22T09:09:19.734Z,50.877216
2024-02-22T09:10:19.816Z,50.877113
2024-02-22T09:11:19.784Z,50.877171
2024-02-22T09:12:19.769Z,50.877213
2024-02-22T09:13:19.706Z,50.877232
2024-02-22T09:14:19.802Z,50.877239
2024-02-22T09:15:19.731Z,50.877140
2024-02-22T09:16:19.715Z,50.877174
2024-02-22T09:17:19.744Z,50.877235
2024-02-22T09:18:19.714Z,50.877232
2024-02-22T09:19:19.694Z,50.877277
2024-02-22T09:20:20.138Z,50.877151
2024-02-22T09:21:19.635Z,50.877148
2024-02-22T09:22:19.608Z,50.877171
2024-02-22T09:23:19.692Z,50.877193
2024-02-22T09:24:19.590Z,50.877186
2024-02-22T09:25:19.645Z,50.877197
2024-02-22T09:26:19.596Z,50.877174
2024-02-22T09:27:19.578Z,50.877159
2024-02-22T09:28:19.606Z,50.877182
2024-02-22T09:29:19.580Z,50.877209
2024-02-22T09:30:19.542Z,50.877228
2024-02-22T09:31:19.549Z,50.877125
2024-02-22T09:32:19.768Z,50.877129
2024-02-22T09:33:19.619Z,50.877167
2024-02-22T09:34:19.604Z,50.877182
2024-02-22T09:35:19.558Z,50.877186
2024-02-22T09:36:19.489Z,50.877182
2024-02-22T09:37:19.503Z,50.877186
2024-02-22T09:38:19.534Z,50.877213
2024-02-22T09:39:19.455Z,50.877239
2024-02-22T09:40:19.447Z,50.877243
2024-02-22T09:41:19.513Z,50.877220
2024-02-22T09:42:19.424Z,50.877151
2024-02-22T09:43:19.429Z,50.877117
2024-02-22T09:44:19.520Z,50.877174
2024-02-22T09:45:19.402Z,50.877155
2024-02-22T09:46:19.389Z,50.877201
2024-02-22T09:47:19.524Z,50.877174
2024-02-22T09:48:19.465Z,50.877167
2024-02-22T09:49:19.428Z,50.877171
2024-02-22T09:50:19.389Z,50.877228
2024-02-22T09:51:19.344Z,50.877155
2024-02-22T09:52:19.322Z,50.877193
2024-02-22T09:53:19.450Z,50.877140
2024-02-22T09:54:19.414Z,50.877159
2024-02-22T09:55:19.285Z,50.877174
2024-02-22T09:56:19.350Z,50.877163
2024-02-22T09:57:19.317Z,50.877155
2024-02-22T09:58:19.258Z,50.877178
2024-02-22T09:59:19.389Z,50.877174
2024-02-22T10:00:20.275Z,50.877155
2024-02-22T10:01:19.280Z,50.877155
2024-02-22T10:02:19.542Z,50.877167
2024-02-22T10:03:19.303Z,50.877174
2024-02-22T10:04:19.226Z,50.877129
2024-02-22T10:05:19.306Z,50.877159
2024-02-22T10:06:19.224Z,50.877171
2024-02-22T10:07:19.182Z,50.877178
2024-02-22T10:08:19.269Z,50.877178
2024-02-22T10:09:19.150Z,50.877182
2024-02-22T10:10:19.161Z,50.877193
2024-02-22T10:11:19.263Z,50.877209
2024-02-22T10:12:19.687Z,50.877197
2024-02-22T10:13:19.348Z,50.877209
2024-02-22T10:14:19.221Z,50.877178
2024-02-22T10:15:19.191Z,50.877220
2024-02-22T10:16:19.154Z,50.877201
2024-02-22T10:17:19.216Z,50.877174
2024-02-22T10:18:19.110Z,50.877155
2024-02-22T10:19:19.205Z,50.877155
2024-02-22T10:20:19.050Z,50.877220
2024-02-22T10:21:19.062Z,50.877213
2024-02-22T10:22:19.015Z,50.877186
2024-02-22T10:23:19.235Z,50.877216
2024-02-22T10:24:19.027Z,50.877228
2024-02-22T10:25:18.981Z,50.877220
2024-02-22T10:26:19.020Z,50.877190
2024-02-22T10:27:18.960Z,50.877201
2024-02-22T10:28:18.947Z,50.877186
2024-02-22T10:29:19.103Z,50.877167
2024-02-22T10:30:18.953Z,50.877144
2024-02-22T10:31:18.906Z,50.877220
2024-02-22T10:32:18.962Z,50.877216
2024-02-22T10:33:18.997Z,50.877228
2024-02-22T10:34:18.976Z,50.877232
2024-02-22T10:35:18.903Z,50.877243
2024-02-22T10:36:18.891Z,50.877220
2024-02-22T10:37:18.853Z,50.877235
2024-02-22T10:38:18.997Z,50.877209
2024-02-22T10:39:18.882Z,50.877205
2024-02-22T10:40:18.855Z,50.877213
2024-02-22T10:41:19.059Z,50.877220
2024-02-22T10:42:18.831Z,50.877209
2024-02-22T10:43:18.835Z,50.877190
2024-02-22T10:44:18.902Z,50.877224
2024-02-22T10:45:18.789Z,50.877224
2024-02-22T10:46:18.770Z,50.877247
2024-02-22T10:47:18.791Z,50.877228
2024-02-22T10:48:18.935Z,50.877247
2024-02-22T10:49:18.763Z,50.877239
2024-02-22T10:50:18.798Z,50.877213
2024-02-22T10:51:18.711Z,50.877174
2024-02-22T10:52:18.711Z,50.877167
2024-02-22T10:53:18.948Z,50.877201
2024-02-22T10:54:18.697Z,50.877193
2024-02-22T10:55:18.711Z,50.877216
2024-02-22T10:56:18.735Z,50.877213
2024-02-22T10:57:18.722Z,50.877216
2024-02-22T10:58:18.684Z,50.877224
2024-02-22T10:59:18.686Z,50.877136
2024-02-22T11:00:18.627Z,50.877125
2024-02-22T11:01:18.713Z,50.877071
2024-02-22T11:02:18.741Z,50.877102
2024-02-22T11:03:18.630Z,50.877190
2024-02-22T11:04:18.684Z,50.877178
2024-02-22T11:05:18.651Z,50.877171
2024-02-22T11:06:18.645Z,50.877167
2024-02-22T11:07:18.567Z,50.877232
2024-02-22T11:08:18.655Z,50.877220
2024-02-22T11:09:18.579Z,50.877232
2024-02-22T11:10:18.538Z,50.877213
2024-02-22T11:11:18.612Z,50.877232
2024-02-22T11:12:18.592Z,50.877216
2024-02-22T11:13:18.524Z,50.877224
2024-02-22T11:14:19.590Z,50.877239
2024-02-22T11:15:18.568Z,50.877216
2024-02-22T11:16:18.493Z,50.877174
2024-02-22T11:17:18.584Z,50.877186
2024-02-22T11:18:18.522Z,50.877201
2024-02-22T11:19:18.558Z,50.877323
2024-02-22T11:20:18.630Z,50.877316
2024-02-22T11:21:18.462Z,50.877300
2024-02-22T11:22:20.860Z,50.877171
2024-02-22T11:23:19.608Z,50.877045
2024-02-22T11:24:18.470Z,50.877262